Cool Spring, North Carolina
Current Conditions -  °F | °C
As of 11:15 PM on Tuesday 25 Nov 2014 (Local Time) from KRUQ Reporting Station
Light Rain Light Rain  
Wind Chill: 44°   Ceiling: 6000
Heat Index: 48°   Visibility: 10mi
Dew Point: 46°   Wind: 7mph
Humidity: 94%   Direction: 20°NNE
Pressure: 30.04"   Gusts: NA
Location:  35.7427°N, 80.712°W
Report Text: KRUQ 260415Z AUTO 02006KT 10SM -RA SCT049 OVC060 09/08 A3004 RMK AO2 P0002 T00870078
Loading
Personal Weather Stations






























Interactive Weather Map New forecast layout! Learn more

10-Day Weather Forecast

Advertisements
Track Severe Weather on mobile